sensor_id;sensor_type;location;lat;lon;timestamp;temperature;humidity
78366;HTU21D;67641;59.864;30.464;2023-08-07T02:29:34;26.37;23.81
78366;HTU21D;67641;59.864;30.464;2023-08-07T02:32:02;26.35;23.91
78366;HTU21D;67641;59.864;30.464;2023-08-07T02:34:29;26.36;23.96
78366;HTU21D;67641;59.864;30.464;2023-08-07T02:38:52;26.36;23.95
78366;HTU21D;67641;59.864;30.464;2023-08-07T02:41:18;26.39;25.09
78366;HTU21D;67641;59.864;30.464;2023-08-07T02:43:45;26.40;24.57
78366;HTU21D;67641;59.864;30.464;2023-08-07T02:46:12;26.35;24.75
78366;HTU21D;67641;59.864;30.464;2023-08-07T02:48:38;26.37;25.18
78366;HTU21D;67641;59.864;30.464;2023-08-07T02:51:06;26.37;26.14
78366;HTU21D;67641;59.864;30.464;2023-08-07T02:53:32;26.38;26.37
78366;HTU21D;67641;59.864;30.464;2023-08-07T02:55:59;26.37;25.75
78366;HTU21D;67641;59.864;30.464;2023-08-07T03:01:05;26.33;25.56
78366;HTU21D;67641;59.864;30.464;2023-08-07T03:43:56;26.30;26.60
78366;HTU21D;67641;59.864;30.464;2023-08-07T03:46:22;26.32;27.62
78366;HTU21D;67641;59.864;30.464;2023-08-07T03:48:49;26.35;28.58
78366;HTU21D;67641;59.864;30.464;2023-08-07T03:51:16;26.32;26.98
78366;HTU21D;67641;59.864;30.464;2023-08-07T03:53:43;26.31;27.08
78366;HTU21D;67641;59.864;30.464;2023-08-07T03:57:06;26.38;26.78
78366;HTU21D;67641;59.864;30.464;2023-08-07T03:59:34;26.45;26.99
78366;HTU21D;67641;59.864;30.464;2023-08-07T04:02:01;26.50;27.87
78366;HTU21D;67641;59.864;30.464;2023-08-07T04:04:28;26.53;28.31
78366;HTU21D;67641;59.864;30.464;2023-08-07T04:06:54;26.53;28.32
78366;HTU21D;67641;59.864;30.464;2023-08-07T04:09:21;26.60;28.93
78366;HTU21D;67641;59.864;30.464;2023-08-07T04:11:48;26.62;28.78
78366;HTU21D;67641;59.864;30.464;2023-08-07T04:14:14;26.67;29.64
78366;HTU21D;67641;59.864;30.464;2023-08-07T04:19:11;26.71;30.35
78366;HTU21D;67641;59.864;30.464;2023-08-07T04:21:38;26.77;30.48
78366;HTU21D;67641;59.864;30.464;2023-08-07T04:24:04;26.77;30.84
78366;HTU21D;67641;59.864;30.464;2023-08-07T04:26:37;26.78;31.67
78366;HTU21D;67641;59.864;30.464;2023-08-07T04:29:04;26.77;32.47
78366;HTU21D;67641;59.864;30.464;2023-08-07T04:31:30;26.80;31.77
78366;HTU21D;67641;59.864;30.464;2023-08-07T04:33:58;26.79;32.48
78366;HTU21D;67641;59.864;30.464;2023-08-07T04:36:24;26.81;32.19
78366;HTU21D;67641;59.864;30.464;2023-08-07T04:40:47;26.77;32.64
78366;HTU21D;67641;59.864;30.464;2023-08-07T04:43:14;26.72;32.43
78366;HTU21D;67641;59.864;30.464;2023-08-07T04:45:41;26.73;33.28
78366;HTU21D;67641;59.864;30.464;2023-08-07T04:48:08;26.76;32.74
78366;HTU21D;67641;59.864;30.464;2023-08-07T04:50:35;26.78;30.97
78366;HTU21D;67641;59.864;30.464;2023-08-07T04:53:02;26.76;31.09
78366;HTU21D;67641;59.864;30.464;2023-08-07T05:10:42;26.78;32.23
78366;HTU21D;67641;59.864;30.464;2023-08-07T05:20:56;26.75;31.67
78366;HTU21D;67641;59.864;30.464;2023-08-07T05:23:23;26.71;30.42
78366;HTU21D;67641;59.864;30.464;2023-08-07T05:25:50;26.63;31.06
78366;HTU21D;67641;59.864;30.464;2023-08-07T05:28:18;26.70;31.12
78366;HTU21D;67641;59.864;30.464;2023-08-07T05:30:45;26.73;31.29
78366;HTU21D;67641;59.864;30.464;2023-08-07T05:33:12;26.83;31.98
78366;HTU21D;67641;59.864;30.464;2023-08-07T05:35:41;26.90;31.54
78366;HTU21D;67641;59.864;30.464;2023-08-07T05:38:07;26.91;31.25
78366;HTU21D;67641;59.864;30.464;2023-08-07T05:43:08;26.97;31.22
78366;HTU21D;67641;59.864;30.464;2023-08-07T05:45:35;27.04;30.42
78366;HTU21D;67641;59.864;30.464;2023-08-07T05:48:02;27.01;30.87
78366;HTU21D;67641;59.864;30.464;2023-08-07T05:50:29;26.98;30.35
78366;HTU21D;67641;59.864;30.464;2023-08-07T05:52:55;27.04;31.19
78366;HTU21D;67641;59.864;30.464;2023-08-07T05:55:22;27.11;30.78
78366;HTU21D;67641;59.864;30.464;2023-08-07T05:57:49;27.11;30.66
78366;HTU21D;67641;59.864;30.464;2023-08-07T06:00:16;27.15;30.67
78366;HTU21D;67641;59.864;30.464;2023-08-07T06:05:13;27.29;32.09
78366;HTU21D;67641;59.864;30.464;2023-08-07T06:07:41;27.32;31.45
78366;HTU21D;67641;59.864;30.464;2023-08-07T06:10:08;27.36;31.16
78366;HTU21D;67641;59.864;30.464;2023-08-07T06:12:35;27.44;31.61
78366;HTU21D;67641;59.864;30.464;2023-08-07T06:15:01;27.49;32.41
78366;HTU21D;67641;59.864;30.464;2023-08-07T06:17:29;27.54;32.45
78366;HTU21D;67641;59.864;30.464;2023-08-07T06:57:13;27.52;45.79
78366;HTU21D;67641;59.864;30.464;2023-08-07T06:59:40;27.51;46.67
78366;HTU21D;67641;59.864;30.464;2023-08-07T07:02:06;27.51;47.28
78366;HTU21D;67641;59.864;30.464;2023-08-07T07:05:45;27.45;48.21
78366;HTU21D;67641;59.864;30.464;2023-08-07T07:29:47;27.64;51.69
78366;HTU21D;67641;59.864;30.464;2023-08-07T07:32:13;27.68;52.56
78366;HTU21D;67641;59.864;30.464;2023-08-07T08:08:15;27.65;57.45
78366;HTU21D;67641;59.864;30.464;2023-08-07T08:10:41;27.61;57.43
78366;HTU21D;67641;59.864;30.464;2023-08-07T08:13:11;27.71;57.99
78366;HTU21D;67641;59.864;30.464;2023-08-07T08:15:37;27.73;57.64
78366;HTU21D;67641;59.864;30.464;2023-08-07T08:18:04;27.81;58.53
78366;HTU21D;67641;59.864;30.464;2023-08-07T08:21:36;27.95;58.99
78366;HTU21D;67641;59.864;30.464;2023-08-07T08:24:03;27.86;59.19
78366;HTU21D;67641;59.864;30.464;2023-08-07T08:26:30;27.78;60.45
78366;HTU21D;67641;59.864;30.464;2023-08-07T08:28:56;27.76;60.44
78366;HTU21D;67641;59.864;30.464;2023-08-07T08:31:22;27.83;61.35
78366;HTU21D;67641;59.864;30.464;2023-08-07T08:33:50;27.88;61.44
78366;HTU21D;67641;59.864;30.464;2023-08-07T08:36:16;27.91;61.55
78366;HTU21D;67641;59.864;30.464;2023-08-07T08:38:44;27.91;62.41
78366;HTU21D;67641;59.864;30.464;2023-08-07T09:05:58;28.18;64.11
78366;HTU21D;67641;59.864;30.464;2023-08-07T09:08:30;28.16;64.14
78366;HTU21D;67641;59.864;30.464;2023-08-07T09:10:56;27.99;65.08
78366;HTU21D;67641;59.864;30.464;2023-08-07T09:13:24;28.00;64.51
78366;HTU21D;67641;59.864;30.464;2023-08-07T09:15:52;27.97;65.43
78366;HTU21D;67641;59.864;30.464;2023-08-07T09:18:21;27.95;65.65
78366;HTU21D;67641;59.864;30.464;2023-08-07T09:22:47;28.14;64.76
78366;HTU21D;67641;59.864;30.464;2023-08-07T09:25:14;28.05;65.00
78366;HTU21D;67641;59.864;30.464;2023-08-07T09:27:41;28.16;64.91
78366;HTU21D;67641;59.864;30.464;2023-08-07T09:30:08;28.21;64.21
78366;HTU21D;67641;59.864;30.464;2023-08-07T09:32:40;28.33;63.73
78366;HTU21D;67641;59.864;30.464;2023-08-07T09:35:07;28.33;63.70
78366;HTU21D;67641;59.864;30.464;2023-08-07T09:37:36;28.34;63.32
78366;HTU21D;67641;59.864;30.464;2023-08-07T09:40:05;28.41;62.96
78366;HTU21D;67641;59.864;30.464;2023-08-07T09:45:26;28.52;62.24
78366;HTU21D;67641;59.864;30.464;2023-08-07T09:48:03;28.64;61.78
78366;HTU21D;67641;59.864;30.464;2023-08-07T09:50:30;28.83;61.01
78366;HTU21D;67641;59.864;30.464;2023-08-07T09:52:58;28.91;60.80
78366;HTU21D;67641;59.864;30.464;2023-08-07T09:55:25;29.02;60.25
78366;HTU21D;67641;59.864;30.464;2023-08-07T09:57:53;29.08;60.40
78366;HTU21D;67641;59.864;30.464;2023-08-07T10:00:21;29.18;60.19
78366;HTU21D;67641;59.864;30.464;2023-08-07T10:49:47;33.27;48.61
78366;HTU21D;67641;59.864;30.464;2023-08-07T10:52:14;33.71;47.31
78366;HTU21D;67641;59.864;30.464;2023-08-07T10:54:46;34.34;45.78
78366;HTU21D;67641;59.864;30.464;2023-08-07T10:57:14;34.67;44.93
78366;HTU21D;67641;59.864;30.464;2023-08-07T11:48:09;49.26;20.12
78366;HTU21D;67641;59.864;30.464;2023-08-07T11:50:46;48.93;20.47
78366;HTU21D;67641;59.864;30.464;2023-08-07T12:46:39;36.12;43.54
78366;HTU21D;67641;59.864;30.464;2023-08-07T12:49:09;35.93;44.13
78366;HTU21D;67641;59.864;30.464;2023-08-07T12:51:35;35.60;45.01
78366;HTU21D;67641;59.864;30.464;2023-08-07T12:54:02;35.37;45.48
78366;HTU21D;67641;59.864;30.464;2023-08-07T12:56:29;35.24;46.17
78366;HTU21D;67641;59.864;30.464;2023-08-07T14:09:48;35.50;46.41
78366;HTU21D;67641;59.864;30.464;2023-08-07T14:13:08;35.45;46.40
78366;HTU21D;67641;59.864;30.464;2023-08-07T14:16:26;35.58;46.53
78366;HTU21D;67641;59.864;30.464;2023-08-07T14:19:18;35.42;47.31
78366;HTU21D;67641;59.864;30.464;2023-08-07T14:24:06;35.62;46.60
78366;HTU21D;67641;59.864;30.464;2023-08-07T14:48:41;35.14;47.67
78366;HTU21D;67641;59.864;30.464;2023-08-07T14:51:10;35.19;47.74
78366;HTU21D;67641;59.864;30.464;2023-08-07T14:53:36;35.19;48.02
78366;HTU21D;67641;59.864;30.464;2023-08-07T14:56:03;35.13;48.34
78366;HTU21D;67641;59.864;30.464;2023-08-07T14:58:31;35.09;48.20
78366;HTU21D;67641;59.864;30.464;2023-08-07T15:01:00;34.96;48.44
78366;HTU21D;67641;59.864;30.464;2023-08-07T15:04:54;34.61;49.33
78366;HTU21D;67641;59.864;30.464;2023-08-07T15:07:21;34.56;49.65
78366;HTU21D;67641;59.864;30.464;2023-08-07T15:09:47;34.55;49.76
78366;HTU21D;67641;59.864;30.464;2023-08-07T15:12:16;34.44;49.89
78366;HTU21D;67641;59.864;30.464;2023-08-07T15:14:43;34.19;50.26
78366;HTU21D;67641;59.864;30.464;2023-08-07T15:17:09;33.99;51.30
78366;HTU21D;67641;59.864;30.464;2023-08-07T15:19:35;33.82;51.81
78366;HTU21D;67641;59.864;30.464;2023-08-07T15:22:01;33.89;51.49
78366;HTU21D;67641;59.864;30.464;2023-08-07T15:27:01;33.92;51.60
78366;HTU21D;67641;59.864;30.464;2023-08-07T15:29:27;33.61;52.49
78366;HTU21D;67641;59.864;30.464;2023-08-07T15:31:53;33.42;53.21
78366;HTU21D;67641;59.864;30.464;2023-08-07T15:34:20;33.38;53.27
78366;HTU21D;67641;59.864;30.464;2023-08-07T15:36:49;33.23;53.55
78366;HTU21D;67641;59.864;30.464;2023-08-07T15:39:15;32.87;54.78
78366;HTU21D;67641;59.864;30.464;2023-08-07T16:03:14;31.68;58.53
78366;HTU21D;67641;59.864;30.464;2023-08-07T16:05:40;31.63;58.86
78366;HTU21D;67641;59.864;30.464;2023-08-07T16:10:23;31.26;59.94
78366;HTU21D;67641;59.864;30.464;2023-08-07T16:12:51;31.19;60.09
78366;HTU21D;67641;59.864;30.464;2023-08-07T16:15:18;31.13;60.33
78366;HTU21D;67641;59.864;30.464;2023-08-07T16:17:44;31.06;60.49
78366;HTU21D;67641;59.864;30.464;2023-08-07T16:20:11;31.06;60.77
78366;HTU21D;67641;59.864;30.464;2023-08-07T16:22:38;31.15;60.44
78366;HTU21D;67641;59.864;30.464;2023-08-07T16:25:06;31.09;60.71
78366;HTU21D;67641;59.864;30.464;2023-08-07T16:27:32;30.93;61.01
78366;HTU21D;67641;59.864;30.464;2023-08-07T16:32:32;30.71;62.00
78366;HTU21D;67641;59.864;30.464;2023-08-07T16:35:00;30.69;61.90
78366;HTU21D;67641;59.864;30.464;2023-08-07T16:37:30;30.64;62.09
78366;HTU21D;67641;59.864;30.464;2023-08-07T16:39:57;30.55;62.60
78366;HTU21D;67641;59.864;30.464;2023-08-07T16:42:24;30.47;62.70
78366;HTU21D;67641;59.864;30.464;2023-08-07T16:44:51;30.49;62.83
78366;HTU21D;67641;59.864;30.464;2023-08-07T16:47:17;30.48;62.60
78366;HTU21D;67641;59.864;30.464;2023-08-07T16:49:47;30.49;62.60
78366;HTU21D;67641;59.864;30.464;2023-08-07T17:16:21;29.81;64.88
78366;HTU21D;67641;59.864;30.464;2023-08-07T17:18:47;29.82;64.90
78366;HTU21D;67641;59.864;30.464;2023-08-07T17:21:14;29.88;64.95
78366;HTU21D;67641;59.864;30.464;2023-08-07T17:23:41;29.95;64.06
78366;HTU21D;67641;59.864;30.464;2023-08-07T17:26:08;29.85;64.75
78366;HTU21D;67641;59.864;30.464;2023-08-07T17:28:36;29.79;64.76
78366;HTU21D;67641;59.864;30.464;2023-08-07T17:31:02;29.70;65.13
78366;HTU21D;67641;59.864;30.464;2023-08-07T17:33:29;29.73;64.97
78366;HTU21D;67641;59.864;30.464;2023-08-07T17:36:08;29.75;64.92
78366;HTU21D;67641;59.864;30.464;2023-08-07T17:38:42;29.72;65.02
78366;HTU21D;67641;59.864;30.464;2023-08-07T17:41:10;29.61;65.36
78366;HTU21D;67641;59.864;30.464;2023-08-07T17:43:37;29.52;65.72
78366;HTU21D;67641;59.864;30.464;2023-08-07T17:46:04;29.57;65.88
78366;HTU21D;67641;59.864;30.464;2023-08-07T17:48:31;29.43;66.16
78366;HTU21D;67641;59.864;30.464;2023-08-07T17:50:58;29.37;66.24
78366;HTU21D;67641;59.864;30.464;2023-08-07T17:56:01;29.23;66.90
78366;HTU21D;67641;59.864;30.464;2023-08-07T17:58:28;29.22;66.85
78366;HTU21D;67641;59.864;30.464;2023-08-07T18:15:46;29.19;67.21
78366;HTU21D;67641;59.864;30.464;2023-08-07T18:40:34;29.09;66.93
78366;HTU21D;67641;59.864;30.464;2023-08-07T18:43:01;29.09;66.81
78366;HTU21D;67641;59.864;30.464;2023-08-07T18:45:27;29.04;67.01
78366;HTU21D;67641;59.864;30.464;2023-08-07T18:50:26;29.00;66.82
78366;HTU21D;67641;59.864;30.464;2023-08-07T18:52:52;29.02;66.72
78366;HTU21D;67641;59.864;30.464;2023-08-07T18:55:19;29.01;66.56
78366;HTU21D;67641;59.864;30.464;2023-08-07T18:57:45;28.93;66.55
78366;HTU21D;67641;59.864;30.464;2023-08-07T19:00:12;28.83;68.11
78366;HTU21D;67641;59.864;30.464;2023-08-07T19:02:40;28.83;68.23
78366;HTU21D;67641;59.864;30.464;2023-08-07T19:05:07;28.82;65.69
78366;HTU21D;67641;59.864;30.464;2023-08-07T19:07:33;28.83;65.10
78366;HTU21D;67641;59.864;30.464;2023-08-07T19:11:47;28.88;65.11
78366;HTU21D;67641;59.864;30.464;2023-08-07T19:14:14;28.86;64.43
78366;HTU21D;67641;59.864;30.464;2023-08-07T19:16:40;28.87;64.30
78366;HTU21D;67641;59.864;30.464;2023-08-07T19:19:12;28.84;64.53
78366;HTU21D;67641;59.864;30.464;2023-08-07T19:43:21;28.25;62.62
78366;HTU21D;67641;59.864;30.464;2023-08-07T19:45:49;28.20;62.38
78366;HTU21D;67641;59.864;30.464;2023-08-07T20:10:07;27.87;62.56
78366;HTU21D;67641;59.864;30.464;2023-08-07T20:12:39;27.85;61.47
78366;HTU21D;67641;59.864;30.464;2023-08-07T20:15:06;27.82;61.09
78366;HTU21D;67641;59.864;30.464;2023-08-07T20:18:55;27.72;61.19
78366;HTU21D;67641;59.864;30.464;2023-08-07T20:46:58;27.39;57.26
78366;HTU21D;67641;59.864;30.464;2023-08-07T20:49:28;27.41;57.72
78366;HTU21D;67641;59.864;30.464;2023-08-07T20:51:57;27.31;56.75
78366;HTU21D;67641;59.864;30.464;2023-08-07T21:28:55;26.80;60.06
78366;HTU21D;67641;59.864;30.464;2023-08-07T21:31:22;26.76;60.21
78366;HTU21D;67641;59.864;30.464;2023-08-07T21:33:48;26.79;60.12
78366;HTU21D;67641;59.864;30.464;2023-08-07T21:36:18;26.89;60.17
78366;HTU21D;67641;59.864;30.464;2023-08-07T21:39:02;26.94;59.83
78366;HTU21D;67641;59.864;30.464;2023-08-07T21:41:30;27.00;59.61
78366;HTU21D;67641;59.864;30.464;2023-08-07T21:43:56;26.99;59.71
78366;HTU21D;67641;59.864;30.464;2023-08-07T21:46:23;27.00;59.20
78366;HTU21D;67641;59.864;30.464;2023-08-07T21:48:50;27.02;58.72
78366;HTU21D;67641;59.864;30.464;2023-08-07T21:51:17;27.00;58.26
78366;HTU21D;67641;59.864;30.464;2023-08-07T22:15:54;26.73;59.61
78366;HTU21D;67641;59.864;30.464;2023-08-07T22:18:21;26.71;60.15
78366;HTU21D;67641;59.864;30.464;2023-08-07T22:22:56;26.66;59.91
78366;HTU21D;67641;59.864;30.464;2023-08-07T22:25:22;26.64;60.28
78366;HTU21D;67641;59.864;30.464;2023-08-07T22:27:49;26.63;59.75
78366;HTU21D;67641;59.864;30.464;2023-08-07T22:30:18;26.57;60.03
78366;HTU21D;67641;59.864;30.464;2023-08-07T22:32:47;26.55;59.80
78366;HTU21D;67641;59.864;30.464;2023-08-07T22:35:17;26.55;59.54
78366;HTU21D;67641;59.864;30.464;2023-08-07T22:40:38;26.45;60.04
78366;HTU21D;67641;59.864;30.464;2023-08-07T22:45:00;26.39;60.28
78366;HTU21D;67641;59.864;30.464;2023-08-07T22:47:27;26.35;61.53
78366;HTU21D;67641;59.864;30.464;2023-08-07T22:49:54;26.34;61.70
78366;HTU21D;67641;59.864;30.464;2023-08-07T22:52:20;26.26;61.71
78366;HTU21D;67641;59.864;30.464;2023-08-07T22:54:47;26.11;61.29
78366;HTU21D;67641;59.864;30.464;2023-08-07T22:57:13;26.03;61.57
78366;HTU21D;67641;59.864;30.464;2023-08-07T22:59:40;26.04;61.50
78366;HTU21D;67641;59.864;30.464;2023-08-07T23:02:09;25.97;61.18
78366;HTU21D;67641;59.864;30.464;2023-08-07T23:06:50;25.90;60.48
78366;HTU21D;67641;59.864;30.464;2023-08-07T23:09:16;25.89;60.58
78366;HTU21D;67641;59.864;30.464;2023-08-07T23:34:12;25.42;61.73
78366;HTU21D;67641;59.864;30.464;2023-08-07T23:36:38;25.37;62.67
78366;HTU21D;67641;59.864;30.464;2023-08-07T23:39:05;25.36;63.05
78366;HTU21D;67641;59.864;30.464;2023-08-07T23:41:32;25.31;63.07
78366;HTU21D;67641;59.864;30.464;2023-08-07T23:43:58;25.29;63.72
78366;HTU21D;67641;59.864;30.464;2023-08-07T23:46:37;25.31;63.07
78366;HTU21D;67641;59.864;30.464;2023-08-07T23:49:04;25.30;62.95
78366;HTU21D;67641;59.864;30.464;2023-08-07T23:51:31;25.23;63.41
78366;HTU21D;67641;59.864;30.464;2023-08-07T23:53:57;25.19;64.62
78366;HTU21D;67641;59.864;30.464;2023-08-07T23:56:24;25.15;64.37
78366;HTU21D;67641;59.864;30.464;2023-08-07T23:58:51;25.06;63.66
